Details From YBRM - Broome Intl
To YLRE - Longreach
Flight Number -
Tags Generated
Created
Modified
Stats Distance 1,281 nm / 2,373 km
Max Altitude 0 ft / 0 m
Waypoints 5
Social Downloads 1
Likes 0
Share VATSIM

Download

Looking for another format? Having issues loading an existing format? Contact us
Advertisement - Login to hide

Notes

Generated

Route

YBRM TATUK BOUNG LRESM YLRE

ID Type Via Altitude Latitude Longitude Leg Dist Tot Dist Heading (true) Name
O YBRM APT - 0 ft / 0 m -17.94581˚ 122.21626˚ - 0 nm - -
TATUK FIX - 0 ft / 0 m -19.42944˚ 126.64639˚ 267 nm 267 nm 110° / 109° -
BOUNG FIX - 0 ft / 0 m -22.69516˚ 139.86256˚ 765 nm 1033 nm 107° / 102° -
LRESM FIX - 0 ft / 0 m -23.44708˚ 144.26005˚ 247 nm 1280 nm 101° / 100° -
O YLRE APT - 0 ft / 0 m -23.43765˚ 144.27200˚ 0 nm 1281 nm 49° / 49° -

Altitude Profile

Advertisement - Login to hide

Weather


0- 5 10 15 20 25 30 35+ Temperature / ° C

Clouds and Precipitation
Forecast for 2017-12-18 06:00 UTC. Updated 27 minutes ago

Ground ~20,000 ft ~40,000 ft Winds

YBRM

Details ICAO YBRM
Name Broome Intl
Region Australia
Timezone Australia/Perth (UTC+8.0)
Stats Elevation 56 ft / 17 m (AMSL)
Location -17.948745° 122.227225°
Runways 1
Magnetic Variation 1.800° E

METAR

YBRM 180530Z 30011KT 9999 FEW024 32/24 Q1005

Decode

TAF

TAF YBRM 172255Z 1800/1824 28010KT CAVOK FM181200 28008KT 9999 SCT015

Decode

Departure Runways

ID Width Length Bearing (true) Bearing (mag) Surface Threshold Offset Overrun Length
10 148 ft / 45 m 8,325 ft / 2,537 m 105.60° 103.80° Asphalt 292 ft / 89 m 52 ft / 16 m
28 148 ft / 45 m 8,325 ft / 2,537 m 285.60° 283.80° Asphalt 666 ft / 203 m 0 ft / 0 m

YLRE

Details ICAO YLRE (LRE)
Name Longreach
Region Australia
Timezone Australia/Brisbane (UTC+10.0)
Stats Elevation 627 ft / 191 m (AMSL)
Location -23.434892° 144.276806°
Runways 2
Magnetic Variation 7.501° E

METAR

YLRE 180500Z AUTO 06013KT 050V110 9999 // NCD 39/09 Q1007

Decode

TAF

Not found

Destination Runways

ID Width Length Bearing (true) Bearing (mag) Surface Threshold Offset Overrun Length
04 82 ft / 25 m 6,351 ft / 1,936 m 46.40° 38.90° Asphalt 0 ft / 0 m 200 ft / 61 m
09 151 ft / 46 m 2,490 ft / 759 m 93.15° 85.65° Dirt 0 ft / 0 m 0 ft / 0 m
22 82 ft / 25 m 6,351 ft / 1,936 m 226.40° 218.90° Asphalt 0 ft / 0 m 210 ft / 64 m
27 151 ft / 46 m 2,490 ft / 759 m 273.14° 265.64° Dirt 0 ft / 0 m 0 ft / 0 m